Time;durP1;ratioP1;P1;durP2;ratioP2;P2;SDS_P1;SDS_P2;PMS_P1;PMS_P2;Temp;Humidity;BMP_temperature;BMP_pressure;BME280_temperature;BME280_humidity;BME280_pressure;Samples;Min_cycle;Max_cycle;Signal;HPM_P1;HPM_P2
2022/08/15 00:02:02;;;;;;;19.73;11.77;;;28.00;61.10;;;;;;5013049;28;20488;-73
2022/08/15 00:04:28;;;;;;;19.75;12.13;;;28.00;61.00;;;;;;5026165;28;20029;-74
2022/08/15 00:06:53;;;;;;;18.40;11.15;;;28.00;61.10;;;;;;5033943;28;20036;-73
2022/08/15 00:09:22;;;;;;;22.63;11.60;;;28.00;61.00;;;;;;5033607;28;20033;-73
2022/08/15 00:11:49;;;;;;;22.38;11.57;;;28.00;61.20;;;;;;5032711;28;20045;-73
2022/08/15 00:14:21;;;;;;;19.58;11.57;;;28.00;61.20;;;;;;5032614;28;20183;-73
2022/08/15 00:16:48;;;;;;;22.10;10.95;;;28.00;60.90;;;;;;5032771;28;20022;-73
2022/08/15 00:19:25;;;;;;;17.88;11.02;;;28.00;61.10;;;;;;5032324;28;20037;-73
2022/08/15 00:21:55;;;;;;;18.95;11.25;;;28.00;61.00;;;;;;5033680;28;20119;-73
2022/08/15 00:24:23;;;;;;;19.50;10.77;;;28.00;61.20;;;;;;5032224;28;20029;-73
2022/08/15 00:26:51;;;;;;;21.70;11.40;;;28.00;61.30;;;;;;5032238;28;20017;-73
2022/08/15 00:29:17;;;;;;;18.13;10.75;;;28.00;61.20;;;;;;5032134;28;20037;-73
2022/08/15 00:31:43;;;;;;;19.02;11.15;;;28.00;61.40;;;;;;5031855;28;20117;-73
2022/08/15 00:34:10;;;;;;;17.88;11.07;;;27.90;61.50;;;;;;5032151;28;20104;-73
2022/08/15 00:36:36;;;;;;;17.33;10.55;;;27.90;61.50;;;;;;5032105;28;20099;-73
2022/08/15 00:39:02;;;;;;;19.23;11.20;;;27.90;61.50;;;;;;5015708;28;20476;-73
2022/08/15 00:41:40;;;;;;;18.05;10.98;;;27.90;61.60;;;;;;4996021;28;20379;-73
2022/08/15 00:44:15;;;;;;;19.73;11.02;;;27.90;61.70;;;;;;5013386;28;20034;-73
2022/08/15 00:46:44;;;;;;;18.15;10.77;;;27.90;61.40;;;;;;5011953;28;20026;-73
2022/08/15 00:49:09;;;;;;;18.38;10.65;;;27.90;61.40;;;;;;5012147;28;20045;-73
2022/08/15 00:52:03;;;;;;;18.02;10.60;;;27.90;61.60;;;;;;5012359;28;20057;-73
2022/08/15 00:55:00;;;;;;;15.43;10.30;;;27.90;61.50;;;;;;5012636;28;20041;-73
2022/08/15 00:57:35;;;;;;;16.50;10.40;;;27.90;61.50;;;;;;5011837;28;20061;-73
2022/08/15 01:00:06;;;;;;;18.40;10.77;;;27.90;61.60;;;;;;5013290;28;20018;-73
2022/08/15 01:02:33;;;;;;;15.68;10.32;;;27.90;61.70;;;;;;5011617;28;20025;-73
2022/08/15 01:04:59;;;;;;;17.95;10.30;;;27.90;61.70;;;;;;5029882;28;20024;-73
2022/08/15 01:07:25;;;;;;;16.80;9.95;;;27.90;61.70;;;;;;5031466;28;20017;-73
2022/08/15 01:09:51;;;;;;;15.25;9.93;;;27.90;62.00;;;;;;5032137;28;20028;-73
2022/08/15 01:12:22;;;;;;;16.38;10.55;;;27.90;61.90;;;;;;5031509;28;20554;-73
2022/08/15 01:14:50;;;;;;;16.70;10.52;;;27.90;62.00;;;;;;5032904;28;20017;-73
2022/08/15 01:17:16;;;;;;;14.90;9.50;;;27.90;61.90;;;;;;5031085;28;20112;-73
2022/08/15 01:19:51;;;;;;;15.57;10.05;;;27.90;62.00;;;;;;5031437;28;20109;-73
2022/08/15 01:22:20;;;;;;;14.43;9.95;;;27.90;62.00;;;;;;5031362;28;20056;-73
2022/08/15 01:24:56;;;;;;;18.17;10.52;;;27.90;62.00;;;;;;5032749;28;20033;-73
2022/08/15 01:27:23;;;;;;;17.83;10.23;;;27.90;62.10;;;;;;5032246;28;20029;-73
2022/08/15 01:29:50;;;;;;;16.65;9.88;;;27.90;62.00;;;;;;5030814;28;20068;-73
2022/08/15 01:32:15;;;;;;;16.98;10.07;;;27.90;62.00;;;;;;5031373;28;20025;-73
2022/08/15 01:34:41;;;;;;;16.88;10.45;;;27.80;62.00;;;;;;5064509;28;20022;-73
2022/08/15 01:37:07;;;;;;;14.27;9.45;;;27.80;62.10;;;;;;5031614;28;20446;-73
2022/08/15 01:39:37;;;;;;;14.93;9.30;;;27.90;62.00;;;;;;5012566;28;20105;-73
2022/08/15 01:42:16;;;;;;;13.85;9.50;;;27.80;62.20;;;;;;5011410;28;20053;-73
2022/08/15 01:44:53;;;;;;;15.32;9.65;;;27.90;62.00;;;;;;5011212;28;20080;-73
2022/08/15 01:47:23;;;;;;;16.52;10.13;;;27.80;62.00;;;;;;5011338;28;20033;-73
2022/08/15 01:49:53;;;;;;;16.30;10.20;;;27.80;62.90;;;;;;5011411;28;20030;-73
2022/08/15 01:52:20;;;;;;;14.68;9.27;;;27.80;62.00;;;;;;5011201;28;20076;-73
2022/08/15 01:54:47;;;;;;;16.77;9.82;;;27.80;62.10;;;;;;5011336;28;20403;-73
2022/08/15 01:57:13;;;;;;;13.93;9.10;;;27.80;62.10;;;;;;5011351;28;20079;-73
2022/08/15 01:59:38;;;;;;;16.23;9.35;;;27.80;62.00;;;;;;5011170;28;20502;-73
2022/08/15 02:02:06;;;;;;;15.00;9.23;;;27.80;62.20;;;;;;5012450;28;20447;-73
2022/08/15 02:04:37;;;;;;;15.23;9.70;;;27.80;62.40;;;;;;5025160;28;20120;-73
2022/08/15 02:07:08;;;;;;;16.77;10.02;;;27.80;62.40;;;;;;5030859;28;20022;-73
2022/08/15 02:09:35;;;;;;;14.55;9.32;;;27.80;62.40;;;;;;5029907;28;20033;-74
2022/08/15 02:12:00;;;;;;;12.68;9.00;;;27.80;62.20;;;;;;5030684;28;20443;-74
2022/08/15 02:14:27;;;;;;;15.50;9.57;;;27.80;62.30;;;;;;5030513;28;20083;-74
2022/08/15 02:16:53;;;;;;;12.93;8.35;;;27.80;62.30;;;;;;5031056;28;20028;-73
2022/08/15 02:19:18;;;;;;;12.48;9.05;;;27.80;62.30;;;;;;5031886;28;20033;-73
2022/08/15 02:21:46;;;;;;;13.55;9.05;;;27.80;62.30;;;;;;5032698;28;20087;-73
2022/08/15 02:24:15;;;;;;;14.00;9.32;;;27.80;62.30;;;;;;5034655;28;20033;-73
2022/08/15 02:26:41;;;;;;;14.35;9.13;;;27.80;62.30;;;;;;5034218;28;20029;-73
2022/08/15 02:29:06;;;;;;;14.68;8.80;;;27.80;62.30;;;;;;5035458;28;20030;-73
2022/08/15 02:31:32;;;;;;;14.32;9.05;;;27.80;62.30;;;;;;5034318;28;20436;-73
2022/08/15 02:33:59;;;;;;;14.82;8.77;;;27.70;62.40;;;;;;5035663;28;20472;-73
2022/08/15 02:36:25;;;;;;;15.55;9.48;;;27.80;62.50;;;;;;5035442;28;20028;-73
2022/08/15 02:38:52;;;;;;;13.80;8.73;;;27.80;62.40;;;;;;5019604;28;20084;-73
2022/08/15 02:41:24;;;;;;;14.30;9.10;;;27.80;62.40;;;;;;5015473;28;20432;-73
2022/08/15 02:43:50;;;;;;;14.38;9.02;;;27.80;62.50;;;;;;5015439;28;20030;-73
2022/08/15 02:46:19;;;;;;;13.43;8.88;;;27.80;62.40;;;;;;5015729;28;20033;-73
2022/08/15 02:48:46;;;;;;;12.95;8.98;;;27.80;62.60;;;;;;5014487;28;20022;-74
2022/08/15 02:51:14;;;;;;;12.20;8.65;;;27.80;62.60;;;;;;5014291;28;20021;-73
2022/08/15 02:53:45;;;;;;;12.90;8.85;;;27.80;62.60;;;;;;5014231;28;20025;-73
2022/08/15 02:56:10;;;;;;;12.05;7.70;;;27.80;62.40;;;;;;5014553;28;20025;-73
2022/08/15 02:58:36;;;;;;;13.55;8.85;;;27.80;63.00;;;;;;5013749;28;20496;-73
2022/08/15 03:01:08;;;;;;;11.73;7.88;;;27.70;62.50;;;;;;5014192;28;20032;-73
2022/08/15 03:03:34;;;;;;;;;;;27.80;62.60;;;;;;5020182;28;20052;-73
2022/08/15 03:06:00;;;;;;;12.90;8.57;;;27.70;62.30;;;;;;5034947;28;20021;-73
2022/08/15 03:08:25;;;;;;;10.88;8.63;;;27.80;62.60;;;;;;5033662;28;20096;-73
2022/08/15 03:10:51;;;;;;;12.90;8.63;;;27.70;62.40;;;;;;5035058;28;20575;-73
2022/08/15 03:13:17;;;;;;;11.18;8.32;;;27.70;62.50;;;;;;5033549;28;20017;-73
2022/08/15 03:15:48;;;;;;;11.25;8.52;;;27.70;62.50;;;;;;5033571;28;20113;-73
2022/08/15 03:18:14;;;;;;;11.40;8.18;;;27.70;62.40;;;;;;5033858;28;20068;-73
2022/08/15 03:20:41;;;;;;;11.70;8.40;;;27.70;63.50;;;;;;5033535;28;20060;-73
2022/08/15 03:23:07;;;;;;;12.30;8.32;;;27.70;62.50;;;;;;5033492;28;20029;-73
2022/08/15 03:25:40;;;;;;;11.82;8.45;;;27.70;62.50;;;;;;5033361;28;20025;-73
2022/08/15 03:28:06;;;;;;;11.15;8.57;;;27.70;62.60;;;;;;5034615;28;20646;-73
2022/08/15 03:30:31;;;;;;;11.07;8.50;;;27.70;62.60;;;;;;5032934;28;20426;-73
2022/08/15 03:32:58;;;;;;;8.88;7.72;;;27.70;62.70;;;;;;5032830;28;20025;-73
2022/08/15 03:35:25;;;;;;;11.38;8.05;;;27.70;62.60;;;;;;5033379;28;20032;-73
2022/08/15 03:37:51;;;;;;;10.48;8.05;;;27.70;62.60;;;;;;5026583;28;20105;-73
2022/08/15 03:40:17;;;;;;;12.68;8.00;;;27.70;62.70;;;;;;5013275;28;20135;-73
2022/08/15 03:43:05;;;;;;;11.38;8.25;;;27.70;62.80;;;;;;5014463;28;20018;-73
2022/08/15 03:45:31;;;;;;;10.85;7.93;;;27.70;62.70;;;;;;5013447;28;20499;-73
2022/08/15 03:47:57;;;;;;;11.07;8.00;;;27.70;62.90;;;;;;5013302;28;20022;-73
2022/08/15 03:50:22;;;;;;;12.63;7.78;;;27.70;62.90;;;;;;5014397;28;20129;-73
2022/08/15 03:52:51;;;;;;;11.32;8.10;;;27.70;62.70;;;;;;5012996;28;20022;-73
2022/08/15 03:55:17;;;;;;;10.88;7.50;;;27.70;62.70;;;;;;5014235;28;20030;-73
2022/08/15 03:57:44;;;;;;;10.85;7.93;;;27.70;62.80;;;;;;5013003;28;20025;-73
2022/08/15 04:00:11;;;;;;;9.93;7.63;;;27.70;62.70;;;;;;5013280;28;20032;-73
2022/08/15 04:02:37;;;;;;;11.30;7.55;;;27.70;62.90;;;;;;5012897;28;20471;-73
2022/08/15 04:05:03;;;;;;;10.32;7.88;;;27.70;62.80;;;;;;5030839;28;20108;-73
2022/08/15 04:07:28;;;;;;;9.70;7.95;;;27.60;62.70;;;;;;5033818;28;20108;-73
2022/08/15 04:09:54;;;;;;;10.13;8.25;;;27.70;62.70;;;;;;5032468;28;20073;-73
2022/08/15 04:12:36;;;;;;;10.93;7.93;;;27.70;62.80;;;;;;5033658;28;20021;-73
2022/08/15 04:15:02;;;;;;;;;;;27.60;62.60;;;;;;5033061;28;20076;-73
2022/08/15 04:17:28;;;;;;;11.13;7.93;;;27.60;62.70;;;;;;5033659;28;19999;-73
2022/08/15 04:19:54;;;;;;;11.18;7.65;;;27.60;62.80;;;;;;5033718;28;20433;-73
2022/08/15 04:22:38;;;;;;;8.90;7.63;;;27.60;62.70;;;;;;5033559;28;20114;-73
2022/08/15 04:25:32;;;;;;;9.18;7.68;;;27.60;62.90;;;;;;5032069;28;20025;-73
2022/08/15 04:28:03;;;;;;;10.70;7.35;;;27.60;62.90;;;;;;5031222;28;20400;-73
2022/08/15 04:30:36;;;;;;;12.50;7.40;;;27.60;62.90;;;;;;5032027;28;20128;-73
2022/08/15 04:33:09;;;;;;;9.90;7.60;;;27.60;62.80;;;;;;5033373;28;20025;-73
2022/08/15 04:35:36;;;;;;;10.85;7.55;;;27.60;62.90;;;;;;5033349;28;20056;-73
2022/08/15 04:38:02;;;;;;;9.32;7.05;;;27.60;62.80;;;;;;5023780;28;20120;-73
2022/08/15 04:40:28;;;;;;;8.98;7.10;;;27.60;62.90;;;;;;5012368;28;20589;-73
2022/08/15 04:42:54;;;;;;;9.95;7.68;;;27.60;62.90;;;;;;5012271;28;20584;-73
2022/08/15 04:45:23;;;;;;;9.13;7.10;;;27.60;62.80;;;;;;5011457;28;20105;-73
2022/08/15 04:47:50;;;;;;;10.02;7.68;;;27.60;62.80;;;;;;5012225;28;20075;-73
2022/08/15 04:50:15;;;;;;;8.57;7.35;;;27.60;62.90;;;;;;5013457;28;20097;-73
2022/08/15 04:52:49;;;;;;;10.45;7.30;;;27.60;62.90;;;;;;5011774;28;20117;-73
2022/08/15 04:55:15;;;;;;;8.40;7.28;;;27.60;62.80;;;;;;5012141;28;20018;-73
2022/08/15 04:57:40;;;;;;;9.27;7.32;;;27.60;62.80;;;;;;5011944;28;20037;-73
2022/08/15 05:00:09;;;;;;;10.52;7.75;;;27.60;62.80;;;;;;5012109;28;20361;-73
2022/08/15 05:02:35;;;;;;;11.98;7.55;;;27.60;62.80;;;;;;5013124;28;20029;-73
2022/08/15 05:05:01;;;;;;;9.07;6.88;;;27.60;62.70;;;;;;5030515;28;20025;-73
2022/08/15 05:07:27;;;;;;;9.32;7.50;;;27.60;62.80;;;;;;5031597;28;20028;-73
2022/08/15 05:09:53;;;;;;;7.75;6.90;;;27.60;62.80;;;;;;5032797;28;20049;-73
2022/08/15 05:12:19;;;;;;;10.23;6.93;;;27.60;62.80;;;;;;5032819;28;20163;-73
2022/08/15 05:14:44;;;;;;;9.93;6.95;;;27.60;62.90;;;;;;5032488;28;20097;-73
2022/08/15 05:17:10;;;;;;;8.95;7.00;;;27.50;62.70;;;;;;5032627;28;20505;-73
2022/08/15 05:19:36;;;;;;;10.10;7.30;;;27.50;62.70;;;;;;5032670;28;20168;-73
2022/08/15 05:22:01;;;;;;;8.98;6.57;;;27.60;62.80;;;;;;5032443;28;20034;-73
2022/08/15 05:24:27;;;;;;;8.65;6.45;;;27.50;62.60;;;;;;5032533;28;20438;-73
2022/08/15 05:26:53;;;;;;;9.38;7.38;;;27.50;62.60;;;;;;5031101;28;20033;-73
2022/08/15 05:29:18;;;;;;;7.35;6.50;;;27.50;62.70;;;;;;5032323;28;20025;-74
2022/08/15 05:31:44;;;;;;;7.38;6.20;;;27.50;62.80;;;;;;5032204;28;20488;-73
2022/08/15 05:34:10;;;;;;;8.60;6.63;;;27.50;62.70;;;;;;5031218;28;20087;-74
2022/08/15 05:36:37;;;;;;;8.50;7.25;;;27.50;62.60;;;;;;5031624;28;20033;-73
2022/08/15 05:39:18;;;;;;;8.45;7.00;;;27.50;62.70;;;;;;5014611;28;20102;-73
2022/08/15 05:41:55;;;;;;;8.52;6.75;;;27.50;62.60;;;;;;5011583;28;20104;-73
2022/08/15 05:44:36;;;;;;;10.52;6.70;;;27.50;62.60;;;;;;5011403;28;20415;-73
2022/08/15 05:47:07;;;;;;;7.18;6.47;;;27.50;62.60;;;;;;5012083;28;20033;-73
2022/08/15 05:49:42;;;;;;;8.95;6.45;;;27.50;62.60;;;;;;5010864;28;20072;-73
2022/08/15 05:52:49;;;;;;;10.90;6.45;;;27.50;62.50;;;;;;5024498;28;20033;-73
2022/08/15 05:55:40;;;;;;;13.68;6.15;;;27.50;62.40;;;;;;5011236;28;20464;-73
2022/08/15 05:58:13;;;;;;;16.33;7.05;;;27.50;62.60;;;;;;5030125;28;20026;-74
2022/08/15 06:00:39;;;;;;;7.25;6.20;;;27.50;62.60;;;;;;5034613;28;20022;-73
2022/08/15 06:03:14;;;;;;;12.60;6.55;;;27.50;62.50;;;;;;5034718;28;20040;-73
2022/08/15 06:05:44;;;;;;;18.80;7.05;;;27.50;62.40;;;;;;5034355;28;20399;-74
2022/08/15 06:08:17;;;;;;;13.80;6.78;;;27.50;63.60;;;;;;5035441;28;20029;-73
2022/08/15 06:10:49;;;;;;;12.68;6.38;;;27.50;62.60;;;;;;5035479;28;20025;-74
2022/08/15 06:13:20;;;;;;;9.05;6.38;;;27.50;62.70;;;;;;5035254;28;20025;-73
2022/08/15 06:16:26;;;;;;;8.45;6.53;;;27.50;62.60;;;;;;5034978;28;20017;-73
2022/08/15 06:18:53;;;;;;;12.50;6.13;;;27.40;62.60;;;;;;5026706;28;20045;-74
2022/08/15 06:21:37;;;;;;;10.20;6.38;;;27.40;62.70;;;;;;5034974;28;20484;-74
2022/08/15 06:24:06;;;;;;;11.23;7.65;;;27.50;62.50;;;;;;5035010;28;20033;-73
2022/08/15 06:26:49;;;;;;;10.27;6.65;;;27.50;62.60;;;;;;5036025;28;20100;-73
2022/08/15 06:30:02;;;;;;;10.32;6.18;;;27.40;62.60;;;;;;5034744;28;20545;-73
2022/08/15 06:32:52;;;;;;;8.82;5.80;;;27.40;62.60;;;;;;5032349;28;20124;-74
2022/08/15 06:35:39;;;;;;;11.43;6.75;;;27.40;62.60;;;;;;5036019;28;20504;-74
2022/08/15 06:38:38;;;;;;;10.68;6.18;;;27.40;62.60;;;;;;5035882;28;20080;-74
2022/08/15 06:41:13;;;;;;;10.98;6.43;;;27.40;62.60;;;;;;5035782;28;20056;-74
2022/08/15 06:43:38;;;;;;;13.60;6.47;;;27.40;62.70;;;;;;5034734;28;20045;-73
2022/08/15 06:46:05;;;;;;;13.27;6.15;;;27.40;62.70;;;;;;5034795;28;20084;-73
2022/08/15 06:48:33;;;;;;;10.43;6.05;;;27.40;62.70;;;;;;5034599;28;20025;-73
2022/08/15 06:51:00;;;;;;;8.60;5.28;;;27.40;62.70;;;;;;5034560;28;20037;-73
2022/08/15 06:53:50;;;;;;;18.98;6.32;;;27.40;62.80;;;;;;5034583;28;20392;-74
2022/08/15 06:56:33;;;;;;;11.85;5.97;;;27.40;63.70;;;;;;5034651;28;20025;-74
2022/08/15 06:59:11;;;;;;;12.32;6.65;;;27.40;62.70;;;;;;5035555;28;20472;-74
2022/08/15 07:01:45;;;;;;;9.73;6.40;;;27.40;62.70;;;;;;5035735;28;20029;-74
2022/08/15 07:04:26;;;;;;;14.07;6.68;;;27.40;62.80;;;;;;5035582;28;20037;-74
2022/08/15 07:07:03;;;;;;;11.85;5.80;;;27.40;62.80;;;;;;5035413;28;20048;-74
2022/08/15 07:09:35;;;;;;;13.23;6.43;;;27.40;62.80;;;;;;5032744;28;20430;-74
2022/08/15 07:12:40;;;;;;;12.15;6.10;;;27.40;62.90;;;;;;5034012;28;20065;-73
2022/08/15 07:15:36;;;;;;;11.88;6.25;;;27.40;62.90;;;;;;5035516;28;20104;-73
2022/08/15 07:18:09;;;;;;;11.27;6.22;;;27.40;62.90;;;;;;5033990;28;20017;-74
2022/08/15 07:20:35;;;;;;;9.20;6.07;;;27.40;62.80;;;;;;5034133;28;20403;-74
2022/08/15 07:23:17;;;;;;;14.93;6.78;;;27.40;63.00;;;;;;5035233;28;20022;-74
2022/08/15 07:25:48;;;;;;;10.65;5.90;;;27.40;62.90;;;;;;5034012;28;20021;-73
2022/08/15 07:28:16;;;;;;;11.05;5.97;;;27.40;62.90;;;;;;5034011;28;20507;-73
2022/08/15 07:31:11;;;;;;;8.75;6.05;;;27.40;63.10;;;;;;5033685;28;20049;-74
2022/08/15 07:33:46;;;;;;;10.75;6.05;;;27.30;62.90;;;;;;5034451;28;20048;-74
2022/08/15 07:36:28;;;;;;;8.07;6.20;;;27.40;63.10;;;;;;5017924;28;20109;-73
2022/08/15 07:38:54;;;;;;;10.52;6.53;;;27.40;63.00;;;;;;5033760;28;20032;-73
2022/08/15 07:41:23;;;;;;;13.75;5.68;;;27.40;63.10;;;;;;5033585;28;20136;-73
2022/08/15 07:43:51;;;;;;;10.60;5.78;;;27.40;63.20;;;;;;5033446;28;20021;-74
2022/08/15 07:46:37;;;;;;;13.27;5.85;;;27.30;63.00;;;;;;5033534;28;20032;-73
2022/08/15 07:49:18;;;;;;;13.48;6.20;;;27.30;63.10;;;;;;5033535;28;20468;-73
2022/08/15 07:51:58;;;;;;;14.35;7.07;;;27.40;63.10;;;;;;5033535;28;20071;-73
2022/08/15 07:54:27;;;;;;;9.77;5.65;;;27.30;63.20;;;;;;5033467;28;20023;-74
2022/08/15 07:56:58;;;;;;;9.18;5.68;;;27.30;63.20;;;;;;5033270;28;20030;-73
2022/08/15 07:59:26;;;;;;;11.77;5.85;;;27.40;63.40;;;;;;5033545;28;20032;-73
2022/08/15 08:02:13;;;;;;;14.10;6.03;;;27.40;63.30;;;;;;5033180;28;20442;-73
2022/08/15 08:04:39;;;;;;;18.52;6.00;;;27.30;63.30;;;;;;5012405;28;20042;-72
2022/08/15 08:07:18;;;;;;;12.10;5.13;;;27.30;63.30;;;;;;5012404;28;20093;-73
2022/08/15 08:09:45;;;;;;;10.30;4.95;;;27.30;61.40;;;;;;5012204;28;20496;-73
2022/08/15 08:12:41;;;;;;;9.25;5.65;;;27.20;59.20;;;;;;5012263;28;20030;-73
2022/08/15 08:15:14;;;;;;;8.68;5.70;;;27.20;59.70;;;;;;4998206;28;20042;-73
2022/08/15 08:17:55;;;;;;;11.73;5.20;;;27.10;59.90;;;;;;5011792;28;20153;-74
2022/08/15 08:20:32;;;;;;;10.02;5.75;;;27.10;59.70;;;;;;4995823;28;20029;-73
2022/08/15 08:23:18;;;;;;;5.90;5.30;;;27.10;59.60;;;;;;4995944;28;20065;-73
2022/08/15 08:26:01;;;;;;;5.82;5.25;;;27.10;59.60;;;;;;5011781;28;20098;-74
2022/08/15 08:28:33;;;;;;;8.18;5.10;;;27.00;59.60;;;;;;5011852;28;20168;-75
2022/08/15 08:31:10;;;;;;;6.78;5.32;;;27.00;59.50;;;;;;4995397;28;20532;-74
2022/08/15 08:33:45;;;;;;;8.98;5.60;;;27.00;59.50;;;;;;4995845;28;20068;-74
2022/08/15 08:36:20;;;;;;;8.90;5.18;;;27.00;59.50;;;;;;5011636;28;20125;-74
2022/08/15 08:39:06;;;;;;;6.45;5.25;;;27.00;59.50;;;;;;4996006;28;20038;-74
2022/08/15 08:41:56;;;;;;;6.43;4.88;;;27.00;59.50;;;;;;5020740;28;20064;-74
2022/08/15 08:44:27;;;;;;;6.50;5.38;;;26.90;59.40;;;;;;5033585;28;20034;-74
2022/08/15 08:47:26;;;;;;;7.93;4.93;;;26.90;59.30;;;;;;5032336;28;20036;-74
2022/08/15 08:49:57;;;;;;;6.90;5.07;;;26.90;59.20;;;;;;5033433;28;20049;-74
2022/08/15 08:52:41;;;;;;;7.50;5.63;;;26.90;59.20;;;;;;5033527;28;20087;-74
2022/08/15 08:55:31;;;;;;;6.43;5.45;;;26.90;58.80;;;;;;5032088;28;20314;-74
2022/08/15 08:58:01;;;;;;;6.10;5.32;;;26.90;58.70;;;;;;5030325;28;20038;-74
2022/08/15 09:00:32;;;;;;;6.18;5.57;;;26.90;58.70;;;;;;5031895;28;20060;-74
2022/08/15 09:03:26;;;;;;;6.32;5.68;;;26.90;58.40;;;;;;5032194;28;20057;-74
2022/08/15 09:05:54;;;;;;;6.03;5.45;;;26.90;58.20;;;;;;5031963;28;20075;-73
2022/08/15 09:08:51;;;;;;;6.72;5.97;;;26.80;58.20;;;;;;5033309;28;20383;-74
2022/08/15 09:11:35;;;;;;;6.95;5.50;;;26.80;58.20;;;;;;5033304;28;20103;-73
2022/08/15 09:14:14;;;;;;;6.15;4.88;;;26.80;58.20;;;;;;5033083;28;20024;-74
2022/08/15 09:16:40;;;;;;;5.95;5.40;;;26.80;58.20;;;;;;5031723;28;20040;-73
2022/08/15 09:19:15;;;;;;;5.47;4.97;;;26.80;58.30;;;;;;5031803;28;20026;-73
2022/08/15 09:21:42;;;;;;;6.32;5.32;;;26.80;58.40;;;;;;5033093;28;20022;-73
2022/08/15 09:24:08;;;;;;;5.60;5.10;;;26.80;58.50;;;;;;5031812;28;20061;-74
2022/08/15 09:26:55;;;;;;;5.30;4.90;;;26.80;58.40;;;;;;5031666;28;20106;-74
2022/08/15 09:29:40;;;;;;;5.53;5.03;;;26.80;58.70;;;;;;5032617;28;20113;-73
2022/08/15 09:32:27;;;;;;;5.63;4.95;;;26.80;58.70;;;;;;5016427;28;20049;-73
2022/08/15 09:35:04;;;;;;;5.47;4.93;;;26.80;58.70;;;;;;5033154;28;20088;-73
2022/08/15 09:37:54;;;;;;;7.00;5.57;;;26.80;58.80;;;;;;5031772;28;20029;-73
2022/08/15 09:40:26;;;;;;;9.38;5.93;;;26.80;59.00;;;;;;5032765;28;20104;-73
2022/08/15 09:43:09;;;;;;;7.15;5.90;;;26.80;59.00;;;;;;5031704;28;20041;-74
2022/08/15 09:46:03;;;;;;;7.95;6.30;;;26.80;59.30;;;;;;5031463;28;20075;-75
2022/08/15 09:48:38;;;;;;;6.82;6.22;;;26.80;59.40;;;;;;5031509;28;20048;-74
2022/08/15 09:51:35;;;;;;;6.63;6.03;;;26.80;59.60;;;;;;5032624;28;20025;-75
2022/08/15 09:54:11;;;;;;;8.00;6.00;;;26.80;59.80;;;;;;5031192;28;20026;-75
2022/08/15 09:56:37;;;;;;;8.32;6.65;;;26.80;59.90;;;;;;5031599;28;20075;-74
2022/08/15 09:59:08;;;;;;;6.90;6.20;;;26.70;59.90;;;;;;5031261;28;20025;-74
2022/08/15 10:01:45;;;;;;;6.60;5.78;;;26.70;59.90;;;;;;5032608;28;20171;-75
2022/08/15 10:04:12;;;;;;;7.00;6.30;;;26.80;60.00;;;;;;5031513;28;20048;-75
2022/08/15 10:07:04;;;;;;;7.78;6.20;;;26.70;60.00;;;;;;5031342;28;20064;-73
2022/08/15 10:09:32;;;;;;;6.47;5.80;;;26.70;60.00;;;;;;5032795;28;20396;-74
2022/08/15 10:12:20;;;;;;;5.95;5.40;;;26.70;60.00;;;;;;5032152;28;20025;-75
2022/08/15 10:14:51;;;;;;;6.55;5.65;;;26.70;60.00;;;;;;5031780;28;20063;-77
2022/08/15 10:17:27;;;;;;;6.43;5.63;;;26.80;60.20;;;;;;5039906;28;20037;-76
2022/08/15 10:19:54;;;;;;;6.70;6.00;;;26.80;59.90;;;;;;5046639;28;20029;-76
2022/08/15 10:22:24;;;;;;;6.22;5.63;;;26.90;59.80;;;;;;5051143;28;20109;-78
2022/08/15 10:25:33;;;;;;;6.57;5.60;;;26.90;59.70;;;;;;5032813;28;20021;-77
2022/08/15 10:28:06;;;;;;;7.10;5.47;;;26.90;59.50;;;;;;5027191;28;20069;-76
2022/08/15 10:30:37;;;;;;;9.93;5.95;;;27.00;59.50;;;;;;5030835;28;20369;-77
2022/08/15 10:33:33;;;;;;;5.70;5.07;;;27.00;59.50;;;;;;5032226;28;20017;-77
2022/08/15 10:36:14;;;;;;;5.30;4.88;;;27.10;59.50;;;;;;5052528;28;20048;-76
2022/08/15 10:38:48;;;;;;;6.65;5.20;;;27.10;59.50;;;;;;5052418;28;20029;-77
2022/08/15 10:41:26;;;;;;;5.78;5.22;;;27.10;59.20;;;;;;5050680;28;20025;-77
2022/08/15 10:44:14;;;;;;;5.40;4.90;;;27.10;59.10;;;;;;5054328;28;20051;-77
2022/08/15 10:46:50;;;;;;;5.78;4.85;;;27.20;59.10;;;;;;5054539;28;20025;-75
2022/08/15 10:49:22;;;;;;;5.38;4.88;;;27.20;59.10;;;;;;5045655;28;20014;-75
2022/08/15 10:52:01;;;;;;;5.55;4.90;;;27.20;59.00;;;;;;5034721;28;20471;-75
2022/08/15 10:54:36;;;;;;;5.05;4.53;;;27.20;59.00;;;;;;5034459;28;20032;-78
2022/08/15 10:57:02;;;;;;;6.32;4.65;;;27.20;58.90;;;;;;5035864;28;20029;-78
2022/08/15 10:59:33;;;;;;;4.80;4.40;;;27.20;58.80;;;;;;5018406;28;20032;-78
2022/08/15 11:02:24;;;;;;;5.22;4.45;;;27.30;58.80;;;;;;5018306;28;20029;-80
2022/08/15 11:04:49;;;;;;;4.57;4.18;;;27.30;58.70;;;;;;5027772;28;20398;-80
2022/08/15 11:07:21;;;;;;;4.70;4.20;;;27.30;58.60;;;;;;5034581;28;20113;-79
2022/08/15 11:09:51;;;;;;;;;;;27.30;58.50;;;;;;5034718;28;20014;-78
2022/08/15 11:12:18;;;;;;;4.55;4.15;;;27.30;58.50;;;;;;5034514;28;19997;-79
2022/08/15 11:14:44;;;;;;;6.75;4.50;;;27.30;58.60;;;;;;5034655;28;20056;-79
2022/08/15 11:17:14;;;;;;;4.63;4.25;;;27.30;58.50;;;;;;5017915;28;20061;-79
2022/08/15 11:19:43;;;;;;;4.43;4.03;;;27.30;58.40;;;;;;5034260;28;20025;-79
2022/08/15 11:22:18;;;;;;;4.30;3.97;;;27.30;58.40;;;;;;5017979;28;20025;-80
2022/08/15 11:24:54;;;;;;;5.70;4.40;;;27.40;58.50;;;;;;5014480;28;20484;-79
2022/08/15 11:27:24;;;;;;;5.47;4.25;;;27.40;58.40;;;;;;5014509;28;20021;-79
2022/08/15 11:29:51;;;;;;;4.43;4.03;;;27.40;58.40;;;;;;5021243;28;20025;-79
2022/08/15 11:32:36;;;;;;;6.28;4.50;;;27.40;58.40;;;;;;5017817;28;20484;-78
2022/08/15 11:35:23;;;;;;;4.53;3.90;;;27.40;58.30;;;;;;5034082;28;20018;-78
2022/08/15 11:37:49;;;;;;;4.18;3.88;;;27.50;58.20;;;;;;5027730;28;20030;-75
2022/08/15 11:40:21;;;;;;;5.90;3.75;;;27.40;58.00;;;;;;5017379;28;20072;-76
2022/08/15 11:42:46;;;;;;;4.03;3.70;;;27.50;58.20;;;;;;5035022;28;20025;-75
2022/08/15 11:45:23;;;;;;;5.28;3.92;;;27.50;58.10;;;;;;5033851;28;20099;-79
2022/08/15 11:47:51;;;;;;;4.78;3.80;;;27.50;58.10;;;;;;5033646;28;20048;-75
2022/08/15 11:50:41;;;;;;;4.18;3.63;;;27.50;58.00;;;;;;5017376;28;20120;-75
2022/08/15 11:53:08;;;;;;;4.20;3.75;;;27.50;58.00;;;;;;5018140;28;20013;-75
2022/08/15 11:55:38;;;;;;;4.30;3.90;;;27.50;58.00;;;;;;5016967;28;20025;-75
2022/08/15 11:58:04;;;;;;;4.70;4.13;;;27.50;58.00;;;;;;5034912;28;20021;-78
2022/08/15 12:00:41;;;;;;;3.80;3.40;;;27.60;58.00;;;;;;5034940;28;20044;-78
2022/08/15 12:03:33;;;;;;;3.78;3.47;;;27.60;57.90;;;;;;5033417;28;20013;-78
2022/08/15 12:06:21;;;;;;;4.05;3.40;;;27.60;57.80;;;;;;5033388;28;20448;-77
2022/08/15 12:08:47;;;;;;;4.78;3.95;;;27.60;57.80;;;;;;5000225;28;20026;-79
2022/08/15 12:11:13;;;;;;;3.80;3.50;;;27.60;57.70;;;;;;5033145;28;20104;-79
2022/08/15 12:13:57;;;;;;;4.18;3.78;;;27.60;57.80;;;;;;5034499;28;20030;-79
2022/08/15 12:16:29;;;;;;;4.00;3.60;;;27.60;57.60;;;;;;5033412;28;20022;-78
2022/08/15 12:18:54;;;;;;;3.83;3.40;;;27.60;57.40;;;;;;5034428;28;20037;-78
2022/08/15 12:21:20;;;;;;;4.03;3.63;;;27.60;57.30;;;;;;5033971;28;20029;-78
2022/08/15 12:23:52;;;;;;;4.60;3.35;;;27.60;57.50;;;;;;5045742;28;20454;-78
2022/08/15 12:26:18;;;;;;;4.05;3.60;;;27.60;57.50;;;;;;5054399;28;20057;-78
2022/08/15 12:28:44;;;;;;;5.32;3.63;;;27.70;57.40;;;;;;5052855;28;20036;-75
2022/08/15 12:31:22;;;;;;;3.83;3.47;;;27.60;57.10;;;;;;5041133;28;20033;-77
2022/08/15 12:33:49;;;;;;;7.15;3.60;;;27.60;57.70;;;;;;5051843;28;20410;-77
2022/08/15 12:36:15;;;;;;;3.95;3.65;;;27.60;57.80;;;;;;5034264;28;20048;-78
2022/08/15 12:38:40;;;;;;;4.25;3.47;;;27.50;57.80;;;;;;5037504;28;20064;-78
2022/08/15 12:41:07;;;;;;;3.88;3.58;;;27.50;57.90;;;;;;5038235;28;20018;-77
2022/08/15 12:43:33;;;;;;;8.43;4.30;;;27.50;57.80;;;;;;5048746;28;20021;-75
2022/08/15 12:45:59;;;;;;;5.95;3.70;;;27.60;57.80;;;;;;5026312;28;20025;-75
2022/08/15 12:48:27;;;;;;;3.60;3.30;;;27.50;57.90;;;;;;5043660;28;20071;-75
2022/08/15 12:50:53;;;;;;;5.25;3.38;;;27.50;57.90;;;;;;5050365;28;20025;-76
2022/08/15 12:53:18;;;;;;;3.55;3.25;;;27.50;57.90;;;;;;5025373;28;20102;-75
2022/08/15 12:55:45;;;;;;;13.77;3.30;;;27.50;58.00;;;;;;5044137;28;20045;-75
2022/08/15 12:58:11;;;;;;;4.03;3.47;;;27.50;58.10;;;;;;5042453;28;20017;-75
2022/08/15 13:00:36;;;;;;;12.88;3.67;;;27.50;58.10;;;;;;5026825;28;20481;-75
2022/08/15 13:03:07;;;;;;;5.35;3.30;;;27.50;58.10;;;;;;5052357;28;20033;-74
2022/08/15 13:05:32;;;;;;;3.72;3.42;;;27.50;58.20;;;;;;5051078;28;20021;-75
2022/08/15 13:07:58;;;;;;;3.38;3.08;;;27.50;58.20;;;;;;5036165;28;20033;-75
2022/08/15 13:10:24;;;;;;;4.13;3.10;;;27.50;58.40;;;;;;5054043;28;20029;-75